METAR Data
IDs: Format: Raw Decoded Include TAF

Data at: 0105 UTC 06 Dec 2019

KLUX 060055Z AUTO 20003KT 10SM CLR 08/M01 A3016 RMK AO2
KLUX 060035Z AUTO 00000KT 10SM CLR 08/M01 A3016 RMK AO2
KLUX 060015Z AUTO 00000KT 10SM CLR 09/M01 A3016 RMK AO2
KLUX 052355Z AUTO 00000KT 10SM CLR 10/M02 A3015 RMK AO2
KLUX 052315Z AUTO 00000KT 10SM CLR 10/M01 A3014 RMK AO2
KLUX 052255Z AUTO 00000KT 10SM CLR 11/M01 A3013 RMK AO2
KLUX 052235Z AUTO 00000KT 10SM CLR 12/M02 A3012 RMK AO2
KLUX 052215Z AUTO 00000KT 10SM CLR 14/M03 A3011 RMK AO2
KLUX 052155Z AUTO 00000KT 10SM CLR 16/M04 A3011 RMK AO2
KLUX 052135Z AUTO 00000KT 10SM CLR 17/M05 A3010 RMK AO2
KLUX 052115Z AUTO 00000KT 10SM CLR 17/M06 A3010 RMK AO2
KLUX 052055Z AUTO 29003KT 10SM CLR 17/M06 A3010 RMK AO2
KLUX 052035Z AUTO 31005KT 10SM CLR 18/M06 A3009 RMK AO2
KLUX 052015Z AUTO 01004KT 10SM CLR 17/M08 A3008 RMK AO2
KLUX 051955Z AUTO 35003KT 10SM CLR 18/M07 A3008 RMK AO2
KLUX 051935Z AUTO 36006KT 10SM CLR 17/M08 A3008 RMK AO2
KLUX 051915Z AUTO 00000KT 10SM CLR 17/M07 A3008 RMK AO2
KLUX 051855Z AUTO 00000KT 10SM CLR 17/M07 A3008 RMK AO2
KLUX 051835Z AUTO 27003KT 10SM CLR 17/M06 A3008 RMK AO2
KLUX 051815Z AUTO 01003KT 10SM CLR 17/M05 A3009 RMK AO2
KLUX 051755Z AUTO 01006KT 10SM CLR 16/M05 A3010 RMK AO2
KLUX 051735Z AUTO 32007KT 10SM CLR 16/M05 A3010 RMK AO2
KLUX 051715Z AUTO 32006G14KT 10SM CLR 15/M04 A3011 RMK AO2
KLUX 051655Z AUTO 35004KT 10SM CLR 15/M04 A3012 RMK AO2
KLUX 051635Z AUTO 34006KT 10SM CLR 15/M03 A3012 RMK AO2
KLUX 051615Z AUTO 35007KT 270V020 10SM CLR 14/M03 A3012 RMK AO2
KLUX 051555Z AUTO 34005KT 10SM CLR 13/M02 A3011 RMK AO2
KLUX 051535Z AUTO 02004KT 10SM CLR 13/M03 A3011 RMK AO2
KLUX 051515Z AUTO 34005KT 10SM CLR 13/M02 A3011 RMK AO2
KLUX 051455Z AUTO 33005KT 10SM CLR 12/M02 A3009 RMK AO2
KLUX 051435Z AUTO 29004KT 10SM CLR 11/M01 A3008 RMK AO2
KLUX 051415Z AUTO 27006KT 10SM CLR 10/M01 A3007 RMK AO2
KLUX 051355Z AUTO 24005KT 10SM CLR 07/00 A3006 RMK AO2
KLUX 051335Z AUTO 00000KT 10SM CLR 05/M01 A3005 RMK AO2
KLUX 051315Z AUTO 25003KT 10SM CLR 03/M01 A3005 RMK AO2
KLUX 051255Z AUTO 00000KT 10SM CLR 03/M01 A3004 RMK AO2
KLUX 051235Z AUTO 00000KT 10SM CLR 03/M01 A3003 RMK AO2
KLUX 051155Z AUTO 00000KT 10SM CLR 03/00 A3001 RMK AO2
KLUX 051135Z AUTO 00000KT 10SM CLR 03/M01 A3000 RMK AO2
KLUX 051115Z AUTO 00000KT 10SM CLR 05/M01 A2999 RMK AO2
KLUX 051055Z AUTO 00000KT 10SM CLR 04/M01 A2998 RMK AO2
KLUX 051035Z AUTO 31004KT 10SM CLR 06/M02 A2997 RMK AO2
KLUX 051015Z AUTO 29003KT 10SM CLR 07/M02 A2996 RMK AO2
KLUX 050955Z AUTO 28005KT 10SM CLR 07/M02 A2995 RMK AO2
KLUX 050935Z AUTO 27003KT 10SM CLR 08/M01 A2994 RMK AO2
KLUX 050915Z AUTO 27004KT 10SM CLR 08/M01 A2994 RMK AO2
KLUX 050855Z AUTO 26006KT 10SM CLR 08/M01 A2993 RMK AO2
KLUX 050835Z AUTO 25003KT 10SM CLR 08/M01 A2992 RMK AO2
KLUX 050815Z AUTO 26005KT 10SM CLR 08/M01 A2991 RMK AO2
KLUX 050755Z AUTO 25004KT 10SM CLR 08/M01 A2990 RMK AO2
KLUX 050735Z AUTO 26004KT 10SM CLR 08/M01 A2990 RMK AO2
KLUX 050715Z AUTO 25004KT 10SM CLR 08/M01 A2989 RMK AO2
KLUX 050655Z AUTO 25005KT 10SM CLR 08/M01 A2988 RMK AO2
KLUX 050635Z AUTO 24007KT 10SM CLR 08/M01 A2988 RMK AO2
KLUX 050615Z AUTO 25006KT 10SM CLR 08/M01 A2987 RMK AO2
KLUX 050555Z AUTO 23006KT 10SM CLR 07/M01 A2987 RMK AO2
KLUX 050535Z AUTO 23006KT 10SM CLR 08/M01 A2987 RMK AO2
KLUX 050515Z AUTO 24005KT 10SM CLR 08/M01 A2986 RMK AO2
KLUX 050455Z AUTO 24005KT 10SM CLR 08/M02 A2987 RMK AO2
KLUX 050435Z AUTO 24005KT 10SM CLR 08/M02 A2987 RMK AO2
KLUX 050415Z AUTO 24006KT 10SM CLR 08/M02 A2986 RMK AO2
KLUX 050355Z AUTO 24005KT 10SM CLR 09/M02 A2986 RMK AO2
KLUX 050335Z AUTO 26004KT 10SM CLR 10/M02 A2985 RMK AO2
KLUX 050315Z AUTO 27007KT 10SM CLR 10/M03 A2986 RMK AO2
KLUX 050255Z AUTO 26006KT 10SM CLR 10/M03 A2986 RMK AO2
KLUX 050235Z AUTO 27006KT 10SM CLR 10/M03 A2985 RMK AO2
KLUX 050215Z AUTO 28006KT 10SM CLR 10/M03 A2985 RMK AO2
KLUX 050155Z AUTO 27006KT 10SM CLR 10/M03 A2984 RMK AO2
KLUX 050135Z AUTO 00000KT 10SM CLR 11/M03 A2984 RMK AO2
KLUX 050115Z AUTO 27005KT 10SM CLR 11/M03 A2983 RMK AO2
KLUX 050055Z AUTO 26004KT 10SM CLR 10/M03 A2983 RMK AO2
KLUX 050035Z AUTO 00000KT 10SM CLR 10/M02 A2983 RMK AO2
KLUX 050015Z AUTO 24004KT 10SM CLR 11/M03 A2982 RMK AO2
KLUX 042355Z AUTO 26004KT 10SM CLR 11/M03 A2981 RMK AO2
KLUX 042335Z AUTO 28005KT 10SM CLR 12/M02 A2980 RMK AO2
KLUX 042315Z AUTO 27007KT 10SM CLR 12/M02 A2980 RMK AO2
KLUX 042255Z AUTO 26005KT 10SM CLR 13/M02 A2979 RMK AO2
KLUX 042235Z AUTO 26003KT 10SM CLR 13/M02 A2978 RMK AO2
KLUX 042215Z AUTO 26005KT 10SM CLR 14/M01 A2977 RMK AO2
KLUX 042155Z AUTO 25004KT 10SM CLR 15/M01 A2977 RMK AO2
KLUX 042135Z AUTO 26008KT 10SM CLR 15/M01 A2976 RMK AO2
KLUX 042115Z AUTO 23009KT 10SM CLR 16/00 A2975 RMK AO2
KLUX 042055Z AUTO 26007G14KT 10SM CLR 16/00 A2976 RMK AO2
KLUX 042035Z AUTO 24008KT 10SM CLR 15/M01 A2976 RMK AO2
KLUX 042015Z AUTO 27007KT 240V300 10SM CLR 16/00 A2975 RMK AO2
KLUX 041955Z AUTO 27007G14KT 10SM CLR 15/00 A2976 RMK AO2
KLUX 041935Z AUTO 27007G14KT 10SM CLR 15/M01 A2975 RMK AO2
KLUX 041915Z AUTO 28009G15KT 10SM CLR 15/00 A2976 RMK AO2
KLUX 041855Z AUTO 28010KT 10SM CLR 15/00 A2976 RMK AO2
KLUX 041835Z AUTO 27006G14KT 10SM CLR 15/M01 A2976 RMK AO2
KLUX 041815Z AUTO 28007KT 240V300 10SM CLR 14/00 A2977 RMK AO2
KLUX 041755Z AUTO 26008KT 10SM CLR 14/M01 A2977 RMK AO2
KLUX 041735Z AUTO 25009G15KT 10SM CLR 13/00 A2977 RMK AO2
KLUX 041715Z AUTO 23010KT 10SM CLR 12/00 A2978 RMK AO2
KLUX 041655Z AUTO 23005KT 10SM CLR 11/00 A2980 RMK AO2
KLUX 041635Z AUTO 25006KT 10SM CLR 10/00 A2981 RMK AO2
KLUX 041615Z AUTO 24005KT 10SM CLR 10/M01 A2982 RMK AO2
KLUX 041555Z AUTO 22003KT 10SM CLR 09/M01 A2982 RMK AO2 P0001
KLUX 041535Z AUTO 00000KT 10SM CLR 08/M01 A2983 RMK AO2 P0001
KLUX 041515Z AUTO 25004KT 10SM CLR 08/M01 A2982 RMK AO2
KLUX 041455Z AUTO 00000KT 10SM CLR 07/M01 A2983 RMK AO2
KLUX 041435Z AUTO 28006KT 10SM CLR 06/M01 A2983 RMK AO2
KLUX 041415Z AUTO 26004KT 10SM CLR 05/M02 A2983 RMK AO2
KLUX 041355Z AUTO 00000KT 10SM CLR 05/M02 A2983 RMK AO2
KLUX 041335Z AUTO 26003KT 10SM CLR 03/M01 A2983 RMK AO2
KLUX 041315Z AUTO 27005KT 10SM CLR 02/M02 A2983 RMK AO2